Time;durP1;ratioP1;P1;durP2;ratioP2;P2;SDS_P1;SDS_P2;PMS_P1;PMS_P2;Temp;Humidity;BMP_temperature;BMP_pressure;BME280_temperature;BME280_humidity;BME280_pressure;Samples;Min_cycle;Max_cycle;Signal;HPM_P1;HPM_P2
2022/10/07 12:12:53;;;;;;;6.70;2.10;;;14.10;99.90;;;;;;2611242;54;20501;-70
2022/10/07 12:15:32;;;;;;;7.40;2.22;;;20.80;99.90;;;;;;2611169;47;21287;-68
2022/10/07 12:18:28;;;;;;;6.32;2.00;;;20.70;99.90;;;;;;2613660;39;20638;-72
2022/10/07 12:21:07;;;;;;;7.72;2.35;;;20.70;99.90;;;;;;2613441;39;20839;-70
2022/10/07 12:23:44;;;;;;;9.30;2.30;;;20.70;99.90;;;;;;2614012;54;20191;-73
2022/10/07 12:26:50;;;;;;;12.95;2.35;;;20.70;99.90;;;;;;2612994;54;20199;-73
2022/10/07 12:29:37;;;;;;;7.47;2.08;;;20.80;99.90;;;;;;2612879;39;20607;-72
2022/10/07 12:32:42;;;;;;;5.30;2.10;;;21.00;99.90;;;;;;2613560;51;20204;-74
2022/10/07 12:35:38;;;;;;;5.90;1.77;;;21.20;99.90;;;;;;2613109;54;20767;-71
2022/10/07 12:38:15;;;;;;;8.88;2.20;;;21.40;99.90;;;;;;2611943;54;20176;-71
2022/10/07 12:40:51;;;;;;;5.65;1.83;;;21.50;99.90;;;;;;2613679;54;20199;-73
2022/10/07 12:43:40;;;;;;;8.43;2.67;;;21.60;99.90;;;;;;2612241;54;20704;-71
2022/10/07 12:46:17;;;;;;;3.83;1.73;;;21.90;99.90;;;;;;2612628;54;20228;-71
2022/10/07 12:48:51;;;;;;;7.72;2.03;;;22.10;99.90;;;;;;2612405;47;20159;-71
2022/10/07 12:51:27;;;;;;;7.20;2.00;;;22.20;99.90;;;;;;2613667;31;20697;-73
2022/10/07 12:53:59;;;;;;;7.20;2.28;;;22.40;99.90;;;;;;2611994;47;20248;-72
2022/10/07 12:56:31;;;;;;;9.93;2.33;;;22.50;99.90;;;;;;2612934;39;20828;-73
2022/10/07 13:02:47;;;;;;;7.90;1.80;;;22.60;99.90;;;;;;2612802;47;20276;-73
2022/10/07 13:05:53;;;;;;;3.95;1.52;;;22.70;99.90;;;;;;2613193;54;20160;-73
2022/10/07 13:08:53;;;;;;;4.95;1.45;;;22.70;99.90;;;;;;2612605;54;20708;-77
2022/10/07 13:11:51;;;;;;;9.02;2.28;;;22.80;99.90;;;;;;2615356;46;20192;-76
2022/10/07 13:14:27;;;;;;;6.05;1.98;;;22.80;99.90;;;;;;2614174;47;20199;-76
2022/10/07 13:17:03;;;;;;;5.82;1.75;;;22.70;99.90;;;;;;2615232;54;20160;-71
2022/10/07 13:19:48;;;;;;;7.07;1.85;;;22.50;99.90;;;;;;2616472;47;20200;-74
2022/10/07 13:22:21;;;;;;;6.30;1.90;;;22.30;99.90;;;;;;2616939;54;20168;-74
2022/10/07 13:24:53;;;;;;;4.75;1.85;;;22.10;99.90;;;;;;2619740;54;20164;-77
2022/10/07 13:27:32;;;;;;;8.77;1.80;;;21.90;99.90;;;;;;2618845;54;20167;-79
2022/10/07 13:30:03;;;;;;;7.10;1.60;;;21.70;99.90;;;;;;2617616;47;20223;-76
2022/10/07 13:32:35;;;;;;;5.07;1.83;;;21.50;99.90;;;;;;2616163;50;20209;-71
2022/10/07 13:35:31;;;;;;;5.85;1.70;;;21.30;99.90;;;;;;2618605;54;20165;-78
2022/10/07 13:38:07;;;;;;;5.53;2.00;;;21.20;99.90;;;;;;2622125;54;20160;-75
2022/10/07 13:40:38;;;;;;;8.82;1.90;;;21.00;99.90;;;;;;2623854;47;20219;-74
2022/10/07 13:43:13;;;;;;;7.80;1.92;;;20.90;99.90;;;;;;2621151;54;20153;-76
2022/10/07 13:45:45;;;;;;;7.10;1.85;;;20.80;99.90;;;;;;2614635;54;20156;-72
2022/10/07 13:48:25;;;;;;;5.75;1.80;;;20.70;99.90;;;;;;2617385;39;20362;-75
2022/10/07 13:51:00;;;;;;;12.23;2.28;;;20.60;99.90;;;;;;2616231;47;20200;-73
2022/10/07 13:53:40;;;;;;;8.10;1.98;;;20.50;99.90;;;;;;2618426;54;20224;-76
2022/10/07 13:56:20;;;;;;;9.98;2.92;;;20.40;99.90;;;;;;2623517;54;20168;-76
2022/10/07 13:58:52;;;;;;;8.90;2.35;;;20.40;99.90;;;;;;2623570;54;20160;-75
2022/10/07 14:01:25;;;;;;;6.20;1.90;;;20.30;99.90;;;;;;2617459;39;20420;-75
2022/10/07 14:04:10;;;;;;;6.72;2.00;;;20.10;99.90;;;;;;2617630;54;20209;-75
2022/10/07 14:06:52;;;;;;;5.97;2.00;;;20.10;99.90;;;;;;2617295;54;20145;-75
2022/10/07 14:09:26;;;;;;;8.82;2.25;;;20.10;99.90;;;;;;2618125;47;20153;-75
2022/10/07 14:11:59;;;;;;;11.85;2.15;;;20.10;99.90;;;;;;2618405;54;20216;-76
2022/10/07 14:14:34;;;;;;;9.95;2.20;;;20.00;99.90;;;;;;2617194;31;20699;-75
2022/10/07 14:17:10;;;;;;;7.47;1.67;;;19.90;99.90;;;;;;2615971;54;20160;-75
2022/10/07 14:19:41;;;;;;;5.78;2.13;;;19.90;99.90;;;;;;2615395;54;20222;-76
2022/10/07 14:22:28;;;;;;;5.13;1.75;;;19.90;99.90;;;;;;2616523;39;20502;-76
2022/10/07 14:25:01;;;;;;;3.97;1.77;;;19.90;99.90;;;;;;2615215;54;20789;-74
2022/10/07 14:27:42;;;;;;;5.07;1.88;;;19.80;99.90;;;;;;2616492;54;20156;-74
2022/10/07 14:36:21;;;;;;;5.82;2.03;;;19.80;99.90;;;;;;2617685;47;20782;-75
2022/10/07 14:38:54;;;;;;;6.00;1.70;;;19.80;99.90;;;;;;2619951;47;20196;-74
2022/10/07 14:41:27;;;;;;;7.38;2.20;;;20.10;99.90;;;;;;2621998;51;20199;-74
2022/10/07 14:43:58;;;;;;;8.27;1.90;;;21.90;99.90;;;;;;2618847;54;20156;-75
2022/10/07 14:46:30;;;;;;;6.88;2.25;;;24.80;99.90;;;;;;2616842;54;20159;-75
2022/10/07 14:49:00;;;;;;;4.32;1.80;;;27.20;99.90;;;;;;2617412;47;20161;-75
2022/10/07 14:51:30;;;;;;;4.97;1.63;;;29.20;99.90;;;;;;2618719;46;20192;-74
2022/10/07 14:54:07;;;;;;;8.10;1.63;;;30.60;99.90;;;;;;2617775;54;20148;-74
2022/10/07 14:56:38;;;;;;;8.63;1.90;;;32.10;99.90;;;;;;2618837;47;20156;-75
2022/10/07 14:59:12;;;;;;;5.32;2.08;;;32.50;99.90;;;;;;2618302;39;20552;-74
2022/10/07 15:01:41;;;;;;;6.75;1.83;;;32.90;99.90;;;;;;2618676;39;20591;-74
2022/10/07 15:04:11;;;;;;;4.40;1.45;;;33.00;99.90;;;;;;2617978;54;20152;-75
2022/10/07 15:06:41;;;;;;;9.32;2.28;;;33.00;99.90;;;;;;2617558;54;20173;-74
2022/10/07 15:09:18;;;;;;;5.63;1.77;;;32.00;99.90;;;;;;2619527;47;20159;-76
2022/10/07 15:11:48;;;;;;;13.35;2.20;;;30.60;99.90;;;;;;2618059;54;20171;-75
2022/10/07 15:14:17;;;;;;;4.43;1.70;;;29.10;99.90;;;;;;2620046;54;20159;-75
2022/10/07 15:16:49;;;;;;;6.75;1.80;;;28.00;99.90;;;;;;2618184;54;20144;-75
2022/10/07 15:19:19;;;;;;;6.53;2.00;;;27.20;99.90;;;;;;2618086;39;21444;-75
2022/10/07 15:21:48;;;;;;;6.30;1.80;;;27.00;99.90;;;;;;2615724;54;20152;-75
2022/10/07 15:24:21;;;;;;;6.35;2.20;;;27.50;99.90;;;;;;2617885;54;20160;-75
2022/10/07 15:26:51;;;;;;;3.95;1.60;;;27.50;99.90;;;;;;2621187;54;20167;-74
2022/10/07 15:29:21;;;;;;;5.13;1.70;;;27.00;99.90;;;;;;2619794;39;20758;-75
2022/10/07 15:31:53;;;;;;;7.30;1.98;;;26.30;99.90;;;;;;2619779;47;20164;-75
2022/10/07 15:34:24;;;;;;;9.00;2.38;;;25.40;99.90;;;;;;2617892;54;20167;-76
2022/10/07 15:36:54;;;;;;;6.47;2.50;;;24.80;99.90;;;;;;2618127;54;20153;-75
2022/10/07 15:39:27;;;;;;;5.05;1.77;;;24.20;99.90;;;;;;2618906;47;20203;-76
2022/10/07 15:41:57;;;;;;;10.00;2.35;;;23.60;99.90;;;;;;2620069;54;20171;-75
2022/10/07 15:44:28;;;;;;;6.20;2.38;;;23.10;99.90;;;;;;2619338;54;20160;-74
2022/10/07 15:46:58;;;;;;;7.97;2.00;;;22.60;99.90;;;;;;2619130;54;20169;-74
2022/10/07 15:49:28;;;;;;;9.30;2.30;;;22.30;99.90;;;;;;2618014;54;20157;-75
2022/10/07 15:51:59;;;;;;;7.30;1.85;;;22.10;99.90;;;;;;2618606;54;20172;-74
2022/10/07 15:54:32;;;;;;;11.55;2.53;;;21.80;99.90;;;;;;2619127;54;20168;-75
2022/10/07 15:57:01;;;;;;;7.28;2.30;;;21.50;99.90;;;;;;2617984;54;20168;-75
2022/10/07 15:59:31;;;;;;;8.13;2.30;;;21.20;99.90;;;;;;2618400;49;20196;-75
2022/10/07 16:02:02;;;;;;;7.60;2.22;;;21.00;99.90;;;;;;2616860;47;20692;-77
2022/10/07 16:04:32;;;;;;;10.40;2.10;;;20.80;99.90;;;;;;2623350;47;20160;-75
2022/10/07 16:07:02;;;;;;;5.28;1.80;;;20.50;99.90;;;;;;2618336;54;20153;-74
2022/10/07 16:09:35;;;;;;;11.70;2.90;;;20.30;99.90;;;;;;2615148;54;20691;-73
2022/10/07 16:12:05;;;;;;;9.10;2.08;;;20.10;99.90;;;;;;2614394;47;20773;-72
2022/10/07 16:14:35;;;;;;;9.48;2.47;;;19.80;99.90;;;;;;2614496;54;20181;-75
2022/10/07 16:17:05;;;;;;;10.40;2.63;;;19.60;99.90;;;;;;2616053;39;20575;-80
2022/10/07 16:19:35;;;;;;;8.02;2.50;;;19.50;99.90;;;;;;2617672;52;20200;-76
2022/10/07 16:22:04;;;;;;;7.28;2.63;;;19.30;99.90;;;;;;2616101;47;20168;-78
2022/10/07 16:24:38;;;;;;;18.95;2.70;;;19.10;99.90;;;;;;2614348;47;20814;-78
2022/10/07 16:27:08;;;;;;;8.45;2.75;;;19.00;99.90;;;;;;2619199;54;20184;-77
2022/10/07 16:32:20;;;;;;;7.75;2.67;;;18.60;99.90;;;;;;2613621;54;20180;-71
2022/10/07 16:34:50;;;;;;;8.50;2.90;;;18.60;99.90;;;;;;2613002;49;20751;-76
2022/10/07 16:37:20;;;;;;;12.75;2.75;;;18.60;99.90;;;;;;2611275;54;20223;-69
2022/10/07 16:39:55;;;;;;;8.27;2.38;;;18.30;99.90;;;;;;2617585;47;20243;-69
2022/10/07 16:42:24;;;;;;;5.22;2.17;;;18.20;99.90;;;;;;2616713;54;20231;-70
2022/10/07 16:44:54;;;;;;;9.50;2.55;;;18.10;99.90;;;;;;2616739;47;20168;-69
2022/10/07 16:47:24;;;;;;;7.53;2.50;;;18.00;99.90;;;;;;2614012;54;20168;-70
2022/10/07 16:49:54;;;;;;;14.90;3.13;;;17.90;99.90;;;;;;2615998;39;20521;-69
2022/10/07 16:52:24;;;;;;;7.97;2.90;;;17.80;99.90;;;;;;2616938;47;20665;-74
2022/10/07 16:54:59;;;;;;;6.97;2.80;;;17.70;99.90;;;;;;2622356;51;20161;-78
2022/10/07 16:57:29;;;;;;;12.20;2.47;;;17.60;99.90;;;;;;2619988;54;20168;-80
2022/10/07 16:59:59;;;;;;;6.95;3.20;;;17.50;99.90;;;;;;2619284;54;20192;-80
2022/10/07 17:02:30;;;;;;;11.80;2.88;;;17.40;99.90;;;;;;2619057;47;20167;-77
2022/10/07 17:05:00;;;;;;;5.70;2.45;;;17.30;99.90;;;;;;2617208;47;20163;-77
2022/10/07 17:07:30;;;;;;;9.80;2.80;;;17.20;99.90;;;;;;2615739;47;20161;-72
2022/10/07 17:10:03;;;;;;;7.38;2.72;;;17.10;99.90;;;;;;2612793;47;20196;-73
2022/10/07 17:12:33;;;;;;;6.72;2.50;;;17.00;99.90;;;;;;2615949;39;21053;-74
2022/10/07 17:15:04;;;;;;;7.53;2.80;;;16.90;99.90;;;;;;2613883;47;20207;-73
2022/10/07 17:17:34;;;;;;;11.20;3.13;;;16.80;99.90;;;;;;2614298;39;20695;-72
2022/10/07 17:20:05;;;;;;;8.05;3.53;;;16.70;99.90;;;;;;2614944;47;20191;-72
2022/10/07 17:22:35;;;;;;;8.98;3.72;;;16.50;99.90;;;;;;2616547;54;20204;-73
2022/10/07 17:25:08;;;;;;;8.93;3.22;;;16.50;99.90;;;;;;2616023;47;20164;-73
2022/10/07 17:27:38;;;;;;;8.02;2.97;;;16.40;99.90;;;;;;2615756;54;20207;-74
2022/10/07 17:30:09;;;;;;;8.10;3.75;;;16.40;99.90;;;;;;2615560;47;20196;-73
2022/10/07 17:32:40;;;;;;;8.32;3.70;;;16.30;99.90;;;;;;2616986;47;20141;-73
2022/10/07 17:35:10;;;;;;;8.98;2.85;;;16.30;99.90;;;;;;2614792;54;20163;-73
2022/10/07 17:37:50;;;;;;;8.63;2.97;;;16.20;99.90;;;;;;2615957;47;20153;-73
2022/10/07 17:40:23;;;;;;;5.00;3.05;;;16.00;99.90;;;;;;2614189;54;20184;-72
2022/10/07 17:42:54;;;;;;;5.50;2.40;;;16.00;99.90;;;;;;2616005;54;20149;-73
2022/10/07 17:45:39;;;;;;;4.68;2.65;;;16.00;99.90;;;;;;2616296;47;20195;-73
2022/10/07 17:48:11;;;;;;;5.25;2.50;;;15.90;99.90;;;;;;2614567;54;20170;-74
2022/10/07 17:50:41;;;;;;;9.82;3.25;;;15.80;99.90;;;;;;2616210;39;20591;-75
2022/10/07 17:53:12;;;;;;;6.93;3.00;;;15.70;99.90;;;;;;2616904;54;20180;-75
2022/10/07 17:55:52;;;;;;;9.50;2.88;;;15.70;99.90;;;;;;2618301;47;20157;-75
2022/10/07 17:58:23;;;;;;;8.32;3.17;;;15.70;99.90;;;;;;2619222;54;20175;-75
2022/10/07 18:00:55;;;;;;;7.75;3.00;;;15.60;99.90;;;;;;2618914;39;20507;-73
2022/10/07 18:03:28;;;;;;;7.60;2.85;;;15.60;99.90;;;;;;2615852;54;20707;-73
2022/10/07 18:05:59;;;;;;;9.20;3.60;;;15.50;99.90;;;;;;2615437;54;20998;-72
2022/10/07 18:08:29;;;;;;;8.60;2.70;;;15.50;99.90;;;;;;2616132;54;20743;-72
2022/10/07 18:11:02;;;;;;;9.90;3.17;;;15.40;99.90;;;;;;2615143;54;20200;-71
2022/10/07 18:16:16;;;;;;;8.07;3.10;;;15.30;99.90;;;;;;2614177;54;20149;-70
2022/10/07 18:18:46;;;;;;;12.43;3.50;;;15.30;99.90;;;;;;2616952;39;20620;-70
2022/10/07 18:21:17;;;;;;;8.13;3.17;;;15.30;99.90;;;;;;2612811;46;20188;-72
2022/10/07 18:23:46;;;;;;;8.20;2.72;;;15.20;99.90;;;;;;2614438;54;20173;-72
2022/10/07 18:26:20;;;;;;;8.05;2.40;;;15.20;99.90;;;;;;2615034;54;20160;-71
2022/10/07 18:28:50;;;;;;;7.63;2.60;;;15.10;99.90;;;;;;2610220;39;20665;-72
2022/10/07 18:31:20;;;;;;;9.23;2.75;;;15.10;99.90;;;;;;2613139;54;20235;-71
2022/10/07 18:33:50;;;;;;;6.80;2.50;;;15.00;99.90;;;;;;2614604;54;20144;-72
2022/10/07 18:36:20;;;;;;;6.68;3.50;;;15.00;99.90;;;;;;2614337;47;20268;-71
2022/10/07 18:38:50;;;;;;;7.82;2.97;;;14.90;99.90;;;;;;2615003;39;20296;-70
2022/10/07 18:41:31;;;;;;;9.15;3.10;;;14.90;99.90;;;;;;2615523;54;20188;-71
2022/10/07 18:44:01;;;;;;;5.20;2.60;;;14.90;99.90;;;;;;2614701;54;20153;-71
2022/10/07 18:46:31;;;;;;;11.27;2.75;;;14.80;99.90;;;;;;2616092;54;20160;-71
2022/10/07 18:49:04;;;;;;;15.65;4.07;;;14.80;99.90;;;;;;2622684;47;20173;-70
2022/10/07 18:51:33;;;;;;;7.60;2.67;;;14.70;99.90;;;;;;2617491;54;20756;-70
2022/10/07 18:54:03;;;;;;;6.07;2.80;;;14.70;99.90;;;;;;2615993;54;20152;-71
2022/10/07 18:56:35;;;;;;;7.82;3.00;;;14.70;99.90;;;;;;2614886;54;20216;-70
2022/10/07 18:59:12;;;;;;;5.55;2.47;;;14.70;99.90;;;;;;2612149;54;20194;-71
2022/10/07 19:01:42;;;;;;;8.98;2.85;;;14.70;99.90;;;;;;2615005;54;20199;-71
2022/10/07 19:04:18;;;;;;;5.15;2.65;;;14.50;99.90;;;;;;2613395;47;20144;-71
2022/10/07 19:06:49;;;;;;;6.55;3.25;;;14.50;99.90;;;;;;2613785;54;20156;-71
2022/10/07 19:09:20;;;;;;;7.65;2.95;;;14.50;99.90;;;;;;2615707;54;20172;-72
2022/10/07 19:11:52;;;;;;;6.43;2.75;;;14.50;99.90;;;;;;2614422;54;20165;-71
2022/10/07 19:14:24;;;;;;;9.60;2.95;;;14.60;99.90;;;;;;2614669;47;20210;-71
2022/10/07 19:16:56;;;;;;;7.60;3.33;;;14.50;99.90;;;;;;2615550;54;20159;-74
2022/10/07 19:19:28;;;;;;;7.75;3.17;;;14.50;99.90;;;;;;2614980;54;20168;-69
2022/10/07 19:21:58;;;;;;;11.48;3.55;;;14.50;99.90;;;;;;2614654;54;20153;-70
2022/10/07 19:27:15;;;;;;;9.00;3.67;;;14.40;99.90;;;;;;2614489;54;20219;-73
2022/10/07 19:29:47;;;;;;;8.32;3.42;;;14.30;99.90;;;;;;2614793;47;21022;-70
2022/10/07 19:32:17;;;;;;;9.90;3.60;;;14.40;99.90;;;;;;2616792;31;20681;-71
2022/10/07 19:34:46;;;;;;;11.25;3.20;;;14.40;99.90;;;;;;2614281;47;20165;-72
2022/10/07 19:37:16;;;;;;;9.43;3.92;;;14.30;99.90;;;;;;2615743;54;20237;-72
2022/10/07 19:39:52;;;;;;;14.73;4.40;;;14.30;99.90;;;;;;2616484;47;20200;-70
2022/10/07 19:42:30;;;;;;;10.70;4.35;;;14.20;99.90;;;;;;2618118;47;20168;-74
2022/10/07 19:45:08;;;;;;;10.93;4.22;;;14.20;99.90;;;;;;2616294;54;20172;-75
2022/10/07 19:47:38;;;;;;;7.38;3.90;;;14.20;99.90;;;;;;2617242;47;20202;-73
2022/10/07 19:50:08;;;;;;;10.30;3.50;;;14.20;99.90;;;;;;2614251;54;20184;-74
2022/10/07 19:52:38;;;;;;;7.72;3.80;;;14.10;99.90;;;;;;2613292;54;20288;-72
2022/10/07 19:55:10;;;;;;;10.13;3.58;;;14.10;99.90;;;;;;2614629;39;20630;-71
2022/10/07 19:57:42;;;;;;;11.07;3.33;;;14.10;99.90;;;;;;2613470;39;20449;-75
2022/10/07 20:00:14;;;;;;;11.10;3.28;;;14.10;99.90;;;;;;2614517;54;20199;-74
2022/10/07 20:02:43;;;;;;;12.77;3.53;;;14.10;99.90;;;;;;2615141;47;20165;-71
2022/10/07 20:05:13;;;;;;;9.82;3.50;;;14.10;99.90;;;;;;2613383;54;20156;-72
2022/10/07 20:07:43;;;;;;;9.15;4.18;;;14.00;99.90;;;;;;2619912;54;20208;-72
2022/10/07 20:10:14;;;;;;;7.78;3.03;;;14.00;99.90;;;;;;2616001;54;20215;-72
2022/10/07 20:12:46;;;;;;;8.38;3.00;;;14.00;99.90;;;;;;2613208;47;21060;-71
2022/10/07 20:15:16;;;;;;;10.10;3.40;;;14.00;99.90;;;;;;2614317;47;20192;-71
2022/10/07 20:17:48;;;;;;;13.98;3.67;;;13.90;99.90;;;;;;2613858;54;20272;-68
2022/10/07 20:20:19;;;;;;;8.48;3.40;;;13.90;99.90;;;;;;2614474;54;20657;-71
2022/10/07 20:22:50;;;;;;;10.30;3.38;;;13.90;99.90;;;;;;2616526;54;20236;-72
2022/10/07 20:25:19;;;;;;;8.43;3.38;;;13.80;99.90;;;;;;2616031;54;20153;-72
2022/10/07 20:27:52;;;;;;;8.52;3.53;;;13.80;99.90;;;;;;2614509;54;20162;-71
2022/10/07 20:30:21;;;;;;;9.15;3.08;;;13.80;99.90;;;;;;2615939;54;20192;-71
2022/10/07 20:32:52;;;;;;;7.85;3.28;;;13.70;99.90;;;;;;2617027;54;20160;-71
2022/10/07 20:35:23;;;;;;;9.02;3.42;;;13.70;99.90;;;;;;2616149;54;20177;-73
2022/10/07 20:37:52;;;;;;;9.85;3.28;;;13.70;99.90;;;;;;2618530;54;20179;-71
2022/10/07 20:43:07;;;;;;;6.65;3.40;;;13.70;99.90;;;;;;2619795;47;20684;-73
2022/10/07 20:45:54;;;;;;;7.95;3.60;;;13.60;99.90;;;;;;2619084;47;20164;-73
2022/10/07 20:48:27;;;;;;;6.47;3.80;;;13.60;99.90;;;;;;2620040;54;20156;-72
2022/10/07 20:50:57;;;;;;;8.05;3.55;;;13.50;99.90;;;;;;2615102;47;20215;-72
2022/10/07 20:53:27;;;;;;;6.93;3.10;;;13.50;99.90;;;;;;2615600;54;20157;-73
2022/10/07 20:55:57;;;;;;;15.60;4.20;;;13.50;99.90;;;;;;2614479;54;20153;-72
2022/10/07 20:58:32;;;;;;;10.30;3.80;;;13.50;99.90;;;;;;2614631;54;20200;-72
2022/10/07 21:01:08;;;;;;;7.85;3.50;;;13.50;99.90;;;;;;2615166;54;20199;-72
2022/10/07 21:03:38;;;;;;;7.10;3.78;;;13.50;99.90;;;;;;2615767;54;20178;-71
2022/10/07 21:06:09;;;;;;;9.65;3.33;;;13.40;99.90;;;;;;2613878;54;20725;-74
2022/10/07 21:08:39;;;;;;;7.18;3.25;;;13.40;99.90;;;;;;2618885;54;20140;-72
2022/10/07 21:11:09;;;;;;;8.98;3.30;;;13.40;99.90;;;;;;2617557;54;20173;-73
2022/10/07 21:13:41;;;;;;;10.15;3.40;;;13.30;99.90;;;;;;2616720;47;20156;-73
2022/10/07 21:16:11;;;;;;;8.18;3.60;;;13.30;99.90;;;;;;2616311;47;20184;-73
2022/10/07 21:18:41;;;;;;;8.85;3.22;;;13.30;99.90;;;;;;2617453;54;20159;-72
2022/10/07 21:21:11;;;;;;;12.57;3.50;;;13.30;99.90;;;;;;2616924;54;20224;-72
2022/10/07 21:23:41;;;;;;;6.65;3.55;;;13.30;99.90;;;;;;2617767;54;20156;-72
2022/10/07 21:26:11;;;;;;;6.78;3.00;;;13.30;99.90;;;;;;2616007;54;20250;-73
2022/10/07 21:28:43;;;;;;;8.23;3.80;;;13.20;99.90;;;;;;2617965;39;20529;-72
2022/10/07 21:31:16;;;;;;;6.32;2.88;;;13.20;99.90;;;;;;2617540;54;20223;-73
2022/10/07 21:33:47;;;;;;;9.20;3.47;;;13.30;99.90;;;;;;2617276;54;20174;-73
2022/10/07 21:36:19;;;;;;;8.68;3.40;;;13.20;99.90;;;;;;2615960;54;20169;-73
2022/10/07 21:38:55;;;;;;;10.70;3.78;;;13.20;99.90;;;;;;2615047;54;20700;-73
2022/10/07 21:41:29;;;;;;;8.52;3.50;;;13.20;99.90;;;;;;2619164;54;20187;-73
2022/10/07 21:44:03;;;;;;;10.63;3.60;;;13.10;99.90;;;;;;2619205;54;20144;-72
2022/10/07 21:46:36;;;;;;;7.18;3.20;;;13.10;99.90;;;;;;2619107;54;20157;-72
2022/10/07 21:49:07;;;;;;;9.27;3.70;;;13.10;99.90;;;;;;2618557;47;20176;-72
2022/10/07 21:51:37;;;;;;;8.88;3.40;;;13.00;99.90;;;;;;2621482;54;20209;-70
2022/10/07 21:54:07;;;;;;;6.22;3.20;;;13.10;99.90;;;;;;2616744;51;20156;-73
2022/10/07 21:56:37;;;;;;;8.18;2.78;;;13.00;99.90;;;;;;2618195;54;20148;-73
2022/10/07 21:59:10;;;;;;;9.68;3.38;;;13.00;99.90;;;;;;2617844;54;20157;-73
2022/10/07 22:01:40;;;;;;;8.00;3.03;;;13.00;99.90;;;;;;2619107;39;20536;-73
2022/10/07 22:04:17;;;;;;;8.65;3.20;;;13.00;99.90;;;;;;2616263;54;20165;-73
2022/10/07 22:09:30;;;;;;;10.57;3.00;;;13.00;99.90;;;;;;2616780;54;20183;-73
2022/10/07 22:12:00;;;;;;;6.65;2.95;;;12.90;99.90;;;;;;2616106;54;20683;-73
2022/10/07 22:14:32;;;;;;;13.05;3.55;;;12.90;99.90;;;;;;2617136;54;20183;-72
2022/10/07 22:17:02;;;;;;;6.40;3.20;;;12.90;99.90;;;;;;2616269;54;20157;-72
2022/10/07 22:19:32;;;;;;;4.80;2.88;;;12.80;99.90;;;;;;2616662;39;20539;-74
2022/10/07 22:22:02;;;;;;;9.88;3.38;;;12.80;99.90;;;;;;2615998;47;20136;-74
2022/10/07 22:24:32;;;;;;;6.75;2.75;;;12.80;99.90;;;;;;2616874;47;20156;-73
2022/10/07 22:27:03;;;;;;;6.13;2.88;;;12.80;99.90;;;;;;2617873;54;20665;-72
2022/10/07 22:29:37;;;;;;;6.57;3.00;;;12.80;99.90;;;;;;2618009;54;20176;-72
2022/10/07 22:32:07;;;;;;;6.43;3.08;;;12.70;99.90;;;;;;2616006;54;20179;-73
2022/10/07 22:37:19;;;;;;;8.77;3.47;;;12.70;99.90;;;;;;2612655;54;20301;-73
2022/10/07 22:39:49;;;;;;;6.43;3.25;;;12.80;99.90;;;;;;2614302;54;20184;-73
2022/10/07 22:42:19;;;;;;;7.15;3.10;;;12.80;99.90;;;;;;2613881;54;20160;-73
2022/10/07 22:44:51;;;;;;;6.10;3.05;;;12.80;99.90;;;;;;2615396;54;20207;-72
2022/10/07 22:47:21;;;;;;;6.03;3.05;;;12.80;99.90;;;;;;2616760;54;20153;-72
2022/10/07 22:49:50;;;;;;;8.07;2.92;;;12.70;99.90;;;;;;2614358;54;20231;-71
2022/10/07 22:52:21;;;;;;;7.70;3.10;;;12.80;99.90;;;;;;2614537;54;20177;-72
2022/10/07 22:54:51;;;;;;;11.00;3.47;;;12.70;99.90;;;;;;2614100;54;20232;-72
2022/10/07 22:57:22;;;;;;;6.38;2.92;;;12.80;99.90;;;;;;2615868;54;20137;-72
2022/10/07 22:59:54;;;;;;;6.78;3.30;;;12.80;99.90;;;;;;2614657;54;20674;-73
2022/10/07 23:02:24;;;;;;;9.60;3.38;;;12.80;99.90;;;;;;2613826;54;20159;-72
2022/10/07 23:04:54;;;;;;;9.27;3.10;;;12.80;99.90;;;;;;2613200;47;20251;-73
2022/10/07 23:07:24;;;;;;;7.07;3.20;;;12.80;99.90;;;;;;2615727;54;20193;-73
2022/10/07 23:09:53;;;;;;;5.10;2.70;;;12.90;99.90;;;;;;2615939;39;20616;-73
2022/10/07 23:12:23;;;;;;;7.30;3.10;;;12.80;99.90;;;;;;2615226;51;20244;-73
2022/10/07 23:14:55;;;;;;;6.28;3.08;;;12.80;99.90;;;;;;2614264;54;20168;-73
2022/10/07 23:17:25;;;;;;;10.55;3.20;;;12.80;99.90;;;;;;2614262;54;20191;-73
2022/10/07 23:19:55;;;;;;;7.55;3.08;;;12.80;99.90;;;;;;2615220;54;20235;-72
2022/10/07 23:22:25;;;;;;;7.00;2.80;;;12.80;99.90;;;;;;2617643;54;20152;-73
2022/10/07 23:24:56;;;;;;;7.40;3.10;;;12.80;99.90;;;;;;2617016;47;20211;-73
2022/10/07 23:27:26;;;;;;;10.30;3.42;;;12.80;99.90;;;;;;2617112;31;20768;-73
2022/10/07 23:29:59;;;;;;;9.23;2.78;;;12.80;99.90;;;;;;2612791;47;20836;-73
2022/10/07 23:32:30;;;;;;;8.27;3.20;;;12.80;99.90;;;;;;2614880;54;20189;-73
2022/10/07 23:34:59;;;;;;;5.32;2.72;;;12.80;99.90;;;;;;2614713;54;20248;-72
2022/10/07 23:37:29;;;;;;;6.60;2.92;;;12.80;99.90;;;;;;2614756;47;20705;-72
2022/10/07 23:39:59;;;;;;;9.23;3.20;;;12.80;99.90;;;;;;2615197;54;20272;-72
2022/10/07 23:42:28;;;;;;;4.85;2.67;;;12.80;99.90;;;;;;2614894;54;20164;-72
2022/10/07 23:45:01;;;;;;;4.50;2.78;;;12.80;99.90;;;;;;2615537;54;20211;-72
2022/10/07 23:47:31;;;;;;;6.63;3.38;;;12.80;99.90;;;;;;2615531;54;20164;-72
2022/10/07 23:50:01;;;;;;;5.75;2.60;;;12.80;99.90;;;;;;2614365;54;20180;-72
2022/10/07 23:52:31;;;;;;;4.75;2.95;;;12.70;99.90;;;;;;2614172;54;20208;-71
2022/10/07 23:55:00;;;;;;;8.55;2.88;;;12.70;99.90;;;;;;2615665;54;20204;-72
2022/10/07 23:57:30;;;;;;;7.68;2.97;;;12.70;99.90;;;;;;2615290;54;20160;-72
